Time;durP1;ratioP1;P1;durP2;ratioP2;P2;SDS_P1;SDS_P2;PMS_P1;PMS_P2;Temp;Humidity;BMP_temperature;BMP_pressure;BME280_temperature;BME280_humidity;BME280_pressure;Samples;Min_cycle;Max_cycle;Signal;HPM_P1;HPM_P2
2021/04/19 02:46:32;;;;;;;22.35;16.25;;;5.70;99.90;;;;;;5430299;22;84622;-84
2021/04/19 02:48:58;;;;;;;21.38;15.02;;;5.70;99.90;;;;;;4933828;28;82815;-84
2021/04/19 02:51:24;;;;;;;21.08;15.35;;;5.60;99.90;;;;;;4933256;28;82805;-84
2021/04/19 02:53:52;;;;;;;20.60;15.95;;;5.60;99.90;;;;;;4932115;28;82477;-83
2021/04/19 02:56:18;;;;;;;21.88;16.60;;;5.60;99.90;;;;;;4931114;28;82729;-83
2021/04/19 02:59:02;;;;;;;21.25;15.23;;;5.70;99.90;;;;;;4933162;28;82461;-83
2021/04/19 03:01:32;;;;;;;21.80;15.45;;;5.70;99.90;;;;;;4933220;28;82610;-83
2021/04/19 03:04:02;;;;;;;22.90;18.13;;;5.70;99.90;;;;;;4931334;28;84227;-85
2021/04/19 03:06:30;;;;;;;17.80;13.88;;;5.80;99.90;;;;;;4932825;28;82700;-82
2021/04/19 03:09:00;;;;;;;23.55;16.80;;;5.80;99.90;;;;;;4933480;28;83024;-83
2021/04/19 03:11:41;;;;;;;21.33;15.85;;;5.90;99.90;;;;;;4932873;28;83353;-85
2021/04/19 03:14:09;;;;;;;24.17;16.13;;;5.90;99.90;;;;;;4932514;28;81941;-83
2021/04/19 03:16:39;;;;;;;23.92;16.55;;;5.90;99.90;;;;;;4925064;28;83088;-83
2021/04/19 03:19:08;;;;;;;20.65;14.88;;;5.90;99.90;;;;;;4913527;28;82982;-83
2021/04/19 03:21:39;;;;;;;24.25;17.40;;;5.90;99.90;;;;;;4932483;28;84404;-84
2021/04/19 03:24:08;;;;;;;21.37;15.17;;;5.90;99.90;;;;;;4933075;28;82743;-83
2021/04/19 03:26:35;;;;;;;20.80;15.85;;;5.90;99.90;;;;;;4938764;28;82804;-83
2021/04/19 03:29:02;;;;;;;24.40;15.70;;;6.00;99.90;;;;;;4924260;28;83122;-84
2021/04/19 03:31:30;;;;;;;23.27;15.70;;;6.10;99.90;;;;;;4928756;28;82611;-83
2021/04/19 03:34:23;;;;;;;19.42;15.65;;;6.10;99.90;;;;;;4930131;28;82578;-85
2021/04/19 03:36:57;;;;;;;21.55;15.98;;;6.20;99.90;;;;;;4901529;28;82879;-85
2021/04/19 03:39:25;;;;;;;20.85;16.58;;;6.20;99.90;;;;;;4918483;28;82672;-84
2021/04/19 03:41:56;;;;;;;24.75;16.52;;;6.30;99.90;;;;;;4923833;28;83021;-86
2021/04/19 03:44:28;;;;;;;26.67;15.98;;;6.30;99.90;;;;;;4916010;28;82638;-86
2021/04/19 03:46:56;;;;;;;21.63;15.77;;;6.30;99.90;;;;;;4911404;28;82390;-85
2021/04/19 03:49:33;;;;;;;26.05;16.23;;;6.40;99.90;;;;;;4910538;28;83371;-86
2021/04/19 03:52:03;;;;;;;20.02;15.25;;;6.40;99.90;;;;;;4910643;28;82664;-87
2021/04/19 03:54:32;;;;;;;22.35;16.10;;;6.40;99.90;;;;;;4924148;28;82112;-87
2021/04/19 03:57:05;;;;;;;20.42;15.13;;;6.40;99.90;;;;;;4927228;28;87208;-87
2021/04/19 03:59:33;;;;;;;22.98;16.20;;;6.40;99.90;;;;;;4896393;28;90783;-87
2021/04/19 04:02:02;;;;;;;22.05;15.18;;;6.40;99.90;;;;;;4903264;28;86630;-87
2021/04/19 04:04:29;;;;;;;24.65;16.73;;;6.40;99.90;;;;;;4894449;28;87211;-87
2021/04/19 04:06:57;;;;;;;20.27;14.88;;;6.30;99.90;;;;;;4903704;28;87492;-87
2021/04/19 04:09:23;;;;;;;22.50;16.27;;;6.30;99.90;;;;;;4908167;28;88153;-87
2021/04/19 04:11:49;;;;;;;20.05;15.57;;;6.30;99.90;;;;;;4886308;28;86846;-87
2021/04/19 04:14:15;;;;;;;21.27;15.73;;;6.30;99.90;;;;;;4907587;28;86697;-87
2021/04/19 04:16:44;;;;;;;21.02;14.93;;;6.30;99.90;;;;;;4904852;28;87258;-87
2021/04/19 04:19:10;;;;;;;22.50;15.68;;;6.30;99.90;;;;;;4890247;28;87350;-87
2021/04/19 04:21:38;;;;;;;21.08;15.80;;;6.30;99.90;;;;;;4907935;28;86965;-86
2021/04/19 04:24:05;;;;;;;23.70;16.38;;;6.30;99.90;;;;;;4890847;28;85438;-85
2021/04/19 04:26:31;;;;;;;22.55;15.98;;;6.30;99.90;;;;;;4890805;28;87309;-87
2021/04/19 04:28:58;;;;;;;20.23;15.43;;;6.40;99.90;;;;;;4900708;28;87767;-86
2021/04/19 04:31:23;;;;;;;21.30;15.50;;;6.30;99.90;;;;;;4917147;28;87936;-86
2021/04/19 04:33:49;;;;;;;23.40;16.40;;;6.30;99.90;;;;;;4915364;28;86922;-86
2021/04/19 04:36:16;;;;;;;22.70;16.35;;;6.20;99.90;;;;;;4892861;28;87764;-86
2021/04/19 04:38:42;;;;;;;24.17;17.00;;;;;;;;;;4871102;28;89783;-85
2021/04/19 04:41:08;;;;;;;22.92;16.85;;;6.30;99.90;;;;;;4889317;28;87059;-84
2021/04/19 04:43:37;;;;;;;27.48;18.23;;;6.30;99.90;;;;;;4895994;28;86785;-85
2021/04/19 04:46:19;;;;;;;25.60;18.70;;;6.30;99.90;;;;;;4908788;28;88660;-86
2021/04/19 04:49:00;;;;;;;23.45;17.20;;;6.30;99.90;;;;;;4896197;28;87039;-85
2021/04/19 04:51:31;;;;;;;25.08;17.27;;;6.30;99.90;;;;;;4908433;28;87009;-86
2021/04/19 04:54:02;;;;;;;27.03;17.73;;;6.20;99.90;;;;;;4911244;28;86920;-85
2021/04/19 04:56:32;;;;;;;26.52;17.55;;;6.10;99.90;;;;;;4899354;28;87870;-84
2021/04/19 04:59:00;;;;;;;25.00;17.35;;;6.10;99.90;;;;;;4909508;28;87410;-85
2021/04/19 05:01:30;;;;;;;22.92;16.60;;;6.00;99.90;;;;;;4908675;28;87003;-85
2021/04/19 05:03:56;;;;;;;24.02;17.48;;;6.10;99.90;;;;;;4892288;28;86928;-85
2021/04/19 05:06:23;;;;;;;25.35;17.00;;;6.10;99.90;;;;;;4905986;28;87240;-83
2021/04/19 05:08:49;;;;;;;25.00;17.05;;;6.20;99.90;;;;;;4909266;28;87112;-84
2021/04/19 05:11:15;;;;;;;24.65;16.55;;;6.20;99.90;;;;;;4900569;28;86929;-85
2021/04/19 05:13:42;;;;;;;23.70;16.17;;;;;;;;;;4904439;28;86271;-85
2021/04/19 05:16:07;;;;;;;19.05;15.52;;;6.40;99.90;;;;;;4904620;28;89399;-83
2021/04/19 05:18:33;;;;;;;22.10;16.08;;;6.50;99.90;;;;;;4905889;28;88238;-83
2021/04/19 05:20:59;;;;;;;19.05;14.70;;;6.60;99.90;;;;;;4887175;28;88876;-84
2021/04/19 05:23:26;;;;;;;23.27;15.80;;;6.80;99.90;;;;;;4891280;28;87416;-85
2021/04/19 05:25:52;;;;;;;22.15;16.42;;;6.90;99.90;;;;;;4908460;28;87874;-85
2021/04/19 05:28:19;;;;;;;23.35;16.52;;;7.00;99.90;;;;;;4909322;28;86968;-85
2021/04/19 05:30:45;;;;;;;25.70;17.77;;;7.10;99.90;;;;;;4906279;28;87049;-86
2021/04/19 05:33:12;;;;;;;22.02;15.98;;;7.20;99.90;;;;;;4906579;28;87052;-86
2021/04/19 05:35:39;;;;;;;22.58;17.30;;;7.30;99.90;;;;;;4907457;28;87076;-86
2021/04/19 05:38:06;;;;;;;26.67;17.88;;;7.40;99.90;;;;;;4888495;28;89292;-86
2021/04/19 05:40:34;;;;;;;24.05;16.70;;;7.40;99.90;;;;;;4915257;28;86938;-87
2021/04/19 05:43:01;;;;;;;22.13;15.35;;;7.50;99.90;;;;;;4897008;28;86963;-85
2021/04/19 05:45:27;;;;;;;24.35;16.05;;;7.60;99.90;;;;;;4905815;28;88162;-87
2021/04/19 05:47:53;;;;;;;27.80;16.42;;;7.60;99.90;;;;;;4918298;28;88139;-87
2021/04/19 05:50:23;;;;;;;21.77;15.35;;;7.80;99.90;;;;;;4892425;28;86195;-86
2021/04/19 05:52:54;;;;;;;26.70;17.60;;;7.90;99.90;;;;;;4913732;28;86647;-85
2021/04/19 05:55:21;;;;;;;;;;;8.00;99.90;;;;;;4908190;28;87136;-86
2021/04/19 05:58:14;;;;;;;24.40;17.27;;;8.10;99.90;;;;;;4907205;28;86412;-84
2021/04/19 06:01:06;;;;;;;22.60;16.58;;;8.10;99.90;;;;;;4904094;28;87055;-84
2021/04/19 06:03:53;;;;;;;22.00;15.68;;;8.10;99.90;;;;;;4907528;28;86081;-83
2021/04/19 06:06:48;;;;;;;22.73;16.20;;;8.20;99.90;;;;;;4901390;28;87601;-85
2021/04/19 06:09:18;;;;;;;22.20;15.80;;;8.30;99.90;;;;;;4904529;28;86956;-84
2021/04/19 06:11:49;;;;;;;22.15;16.23;;;8.40;99.90;;;;;;4901511;28;88053;-85
2021/04/19 06:14:20;;;;;;;21.23;15.65;;;8.50;99.90;;;;;;4907901;28;86663;-84
2021/04/19 06:16:46;;;;;;;19.95;15.48;;;8.60;99.90;;;;;;4908221;28;87202;-85
2021/04/19 06:19:15;;;;;;;22.80;16.38;;;8.80;99.90;;;;;;4902061;28;88856;-85
2021/04/19 06:21:43;;;;;;;22.25;15.35;;;9.00;99.90;;;;;;4907669;28;86973;-87
2021/04/19 06:24:11;;;;;;;19.52;14.68;;;9.10;99.90;;;;;;4907215;28;86358;-86
2021/04/19 06:26:37;;;;;;;20.30;16.30;;;9.30;99.90;;;;;;4906986;28;88620;-86
2021/04/19 06:29:08;;;;;;;24.15;16.63;;;9.40;99.90;;;;;;4901565;28;86788;-87
2021/04/19 06:31:36;;;;;;;24.88;17.13;;;9.50;99.90;;;;;;4886517;28;87033;-85
2021/04/19 06:34:02;;;;;;;24.65;17.35;;;9.60;99.40;;;;;;4912845;28;86881;-86
2021/04/19 06:36:30;;;;;;;21.83;17.23;;;9.60;99.00;;;;;;4912718;28;88239;-86
2021/04/19 06:38:59;;;;;;;24.38;16.98;;;9.50;99.30;;;;;;4911036;28;87251;-86
2021/04/19 06:41:25;;;;;;;25.48;17.90;;;9.60;98.60;;;;;;4911524;28;87063;-85
2021/04/19 06:43:51;;;;;;;25.90;17.85;;;9.60;98.50;;;;;;4898980;28;87045;-86
2021/04/19 06:46:17;;;;;;;27.75;18.67;;;9.50;98.50;;;;;;4876285;28;88116;-86
2021/04/19 06:48:43;;;;;;;26.23;18.90;;;9.50;98.40;;;;;;4910143;28;86921;-86
2021/04/19 06:51:11;;;;;;;28.92;19.60;;;9.50;98.00;;;;;;4907876;28;86949;-85
2021/04/19 06:53:37;;;;;;;24.58;18.45;;;9.60;97.80;;;;;;4909081;28;86079;-85
2021/04/19 06:56:06;;;;;;;26.95;18.38;;;9.40;98.20;;;;;;4912667;28;88693;-86
2021/04/19 06:58:33;;;;;;;26.45;17.73;;;9.50;98.50;;;;;;4891494;28;88529;-86
2021/04/19 07:01:00;;;;;;;25.25;17.77;;;9.70;98.00;;;;;;4909269;28;88143;-86
2021/04/19 07:03:28;;;;;;;27.45;18.52;;;9.80;98.20;;;;;;4907242;28;87543;-86
2021/04/19 07:05:54;;;;;;;25.25;19.02;;;10.00;98.10;;;;;;4907882;28;87045;-86
2021/04/19 07:08:28;;;;;;;25.90;18.63;;;10.20;96.90;;;;;;4907783;28;87917;-86
2021/04/19 07:11:00;;;;;;;25.58;18.60;;;10.40;97.10;;;;;;4910378;28;87510;-86
2021/04/19 07:13:29;;;;;;;26.48;19.13;;;10.60;97.00;;;;;;4903361;28;86690;-87
2021/04/19 07:15:55;;;;;;;25.83;18.98;;;10.70;94.70;;;;;;4910870;28;86507;-86
2021/04/19 07:18:21;;;;;;;29.25;18.35;;;10.70;93.70;;;;;;4910862;28;86237;-86
2021/04/19 07:20:47;;;;;;;28.13;19.40;;;10.90;93.90;;;;;;4908070;28;86855;-86
2021/04/19 07:23:14;;;;;;;23.27;18.20;;;11.30;93.70;;;;;;4907508;28;86990;-86
2021/04/19 07:25:41;;;;;;;21.75;16.30;;;11.80;92.30;;;;;;4906070;28;87808;-85
2021/04/19 07:28:07;;;;;;;22.58;17.00;;;12.60;90.60;;;;;;4910041;28;87917;-87
2021/04/19 07:30:33;;;;;;;24.55;18.50;;;13.70;88.40;;;;;;4908560;28;86217;-85
2021/04/19 07:33:02;;;;;;;21.75;16.55;;;14.80;79.40;;;;;;4910866;28;87560;-85
2021/04/19 07:35:33;;;;;;;21.88;16.08;;;15.80;74.80;;;;;;4908351;28;87548;-86
2021/04/19 07:38:07;;;;;;;20.23;16.58;;;16.80;68.50;;;;;;4903135;28;88634;-85
2021/04/19 07:40:43;;;;;;;20.52;17.13;;;17.70;63.80;;;;;;4904351;28;87037;-85
2021/04/19 07:43:19;;;;;;;21.20;16.48;;;18.40;59.30;;;;;;4908511;28;86409;-85
2021/04/19 07:46:18;;;;;;;23.77;18.27;;;19.50;55.00;;;;;;4903391;28;88188;-85
2021/04/19 07:48:48;;;;;;;21.05;17.15;;;19.80;52.40;;;;;;4862335;28;87279;-85
2021/04/19 07:51:34;;;;;;;19.93;17.43;;;21.00;50.60;;;;;;4908498;28;87950;-85
2021/04/19 07:54:22;;;;;;;26.48;18.65;;;21.90;46.30;;;;;;4913688;28;86986;-85
2021/04/19 07:56:53;;;;;;;21.98;18.05;;;23.30;44.00;;;;;;4901365;28;87243;-86
2021/04/19 07:59:20;;;;;;;20.08;16.90;;;24.20;41.60;;;;;;4912021;28;86993;-86
2021/04/19 08:02:09;;;;;;;22.73;18.45;;;23.30;39.90;;;;;;4909352;28;87038;-86
2021/04/19 08:04:45;;;;;;;21.10;16.60;;;23.10;40.00;;;;;;4903903;28;86937;-85
2021/04/19 08:07:28;;;;;;;23.35;17.17;;;24.70;40.10;;;;;;4903192;28;86752;-86
2021/04/19 08:09:56;;;;;;;17.80;16.10;;;26.10;36.50;;;;;;4902695;28;87402;-86
2021/04/19 08:12:38;;;;;;;18.33;16.45;;;26.50;37.00;;;;;;4919220;28;86906;-86
2021/04/19 08:15:07;;;;;;;16.65;14.98;;;27.30;34.20;;;;;;4906128;28;86898;-85
2021/04/19 08:17:33;;;;;;;17.23;15.50;;;28.00;32.60;;;;;;4902559;28;89184;-86
2021/04/19 08:20:00;;;;;;;20.23;18.13;;;28.20;32.10;;;;;;4902004;28;88509;-86
2021/04/19 08:22:30;;;;;;;20.13;18.13;;;27.00;33.20;;;;;;4909696;28;87637;-86
2021/04/19 08:25:19;;;;;;;20.13;17.75;;;26.70;34.30;;;;;;4900805;28;86981;-86
2021/04/19 08:28:20;;;;;;;18.67;16.48;;;28.50;32.00;;;;;;4898748;28;88173;-85
2021/04/19 08:30:52;;;;;;;19.38;17.48;;;30.40;30.90;;;;;;4881507;28;88490;-85
2021/04/19 08:33:19;;;;;;;16.13;14.57;;;31.40;30.30;;;;;;4912672;28;86987;-85
2021/04/19 08:35:46;;;;;;;20.27;18.27;;;31.60;29.20;;;;;;4922403;28;86096;-86
2021/04/19 08:38:21;;;;;;;20.55;18.75;;;30.00;30.30;;;;;;4906699;28;90660;-86
2021/04/19 08:40:47;;;;;;;20.83;18.92;;;30.50;28.90;;;;;;4930964;28;87465;-85
2021/04/19 08:43:20;;;;;;;18.20;16.67;;;31.00;29.50;;;;;;4918325;28;87439;-85
2021/04/19 08:45:47;;;;;;;17.33;15.82;;;31.60;29.20;;;;;;4905900;28;86951;-85
2021/04/19 08:48:14;;;;;;;17.80;16.20;;;32.00;28.60;;;;;;4904320;28;87461;-85
2021/04/19 08:50:42;;;;;;;18.48;16.70;;;33.00;28.50;;;;;;4910755;28;86981;-85
2021/04/19 08:53:10;;;;;;;20.88;19.27;;;34.50;26.90;;;;;;4902646;28;87905;-85
2021/04/19 08:55:36;;;;;;;18.40;16.80;;;34.80;27.40;;;;;;4906031;28;87837;-85
2021/04/19 08:58:08;;;;;;;16.88;15.38;;;35.70;26.40;;;;;;4905984;28;88222;-84
2021/04/19 09:00:36;;;;;;;16.92;15.32;;;35.60;26.10;;;;;;4904476;28;87476;-85
2021/04/19 09:03:03;;;;;;;16.73;15.23;;;35.80;26.80;;;;;;4904073;28;86657;-86
2021/04/19 09:05:29;;;;;;;15.52;14.35;;;35.60;26.00;;;;;;4904038;28;86819;-85
2021/04/19 09:08:06;;;;;;;18.80;17.10;;;36.50;26.20;;;;;;4907042;28;88023;-85
2021/04/19 09:11:01;;;;;;;18.77;17.10;;;36.90;25.60;;;;;;4904530;28;88350;-85
2021/04/19 09:13:34;;;;;;;18.40;16.80;;;37.30;25.30;;;;;;4895894;28;87049;-85
2021/04/19 09:16:23;;;;;;;20.00;18.40;;;35.80;25.70;;;;;;4904069;28;86220;-85
2021/04/19 09:19:00;;;;;;;20.40;18.60;;;33.40;26.90;;;;;;4904722;28;86816;-84
2021/04/19 09:21:50;;;;;;;23.55;21.08;;;33.10;27.70;;;;;;4912052;28;86879;-85
2021/04/19 09:24:21;;;;;;;20.02;18.27;;;34.00;27.30;;;;;;4902467;28;87007;-85
2021/04/19 09:26:51;;;;;;;20.20;18.40;;;34.40;26.80;;;;;;4904855;28;86323;-85
2021/04/19 09:29:29;;;;;;;;;;;34.80;26.80;;;;;;4906721;28;89149;-85
2021/04/19 09:32:01;;;;;;;19.27;17.50;;;35.00;26.70;;;;;;4910573;28;87123;-85
2021/04/19 09:34:37;;;;;;;20.33;18.73;;;35.30;26.10;;;;;;4907968;28;88645;-85
2021/04/19 09:37:03;;;;;;;23.02;21.13;;;35.70;25.90;;;;;;4910530;28;86971;-85
2021/04/19 09:39:48;;;;;;;21.73;19.92;;;35.80;26.10;;;;;;4904038;28;87633;-85
2021/04/19 09:42:15;;;;;;;20.33;18.48;;;35.60;25.80;;;;;;4904478;28;86684;-85
2021/04/19 09:44:54;;;;;;;18.95;17.35;;;35.30;26.30;;;;;;4892829;28;86842;-85
2021/04/19 09:47:52;;;;;;;20.20;18.42;;;35.90;25.50;;;;;;4896364;28;86668;-85
2021/04/19 09:50:23;;;;;;;20.58;18.63;;;36.40;25.30;;;;;;4894789;28;87792;-86
2021/04/19 09:52:50;;;;;;;19.10;17.50;;;37.00;25.40;;;;;;4883009;28;89257;-85
2021/04/19 09:55:17;;;;;;;23.25;21.35;;;37.50;25.10;;;;;;4906657;28;86863;-85
2021/04/19 09:57:44;;;;;;;22.90;21.00;;;37.00;25.60;;;;;;4914493;28;86875;-85
2021/04/19 10:00:11;;;;;;;21.05;19.40;;;37.70;25.30;;;;;;4889015;28;87828;-85
2021/04/19 10:02:40;;;;;;;19.40;17.77;;;38.50;25.40;;;;;;4907093;28;87112;-85
2021/04/19 10:05:07;;;;;;;21.05;19.48;;;38.90;24.50;;;;;;4896573;28;87021;-86
2021/04/19 10:07:37;;;;;;;18.02;16.52;;;39.20;24.90;;;;;;4909445;28;86997;-85
2021/04/19 10:10:05;;;;;;;16.73;15.30;;;39.40;24.10;;;;;;4919665;28;87128;-88
2021/04/19 10:12:35;;;;;;;19.70;18.20;;;39.70;24.10;;;;;;4908648;28;88692;-87
2021/04/19 10:15:01;;;;;;;19.02;17.63;;;40.00;23.70;;;;;;4885367;28;86994;-86
2021/04/19 10:17:32;;;;;;;20.35;18.90;;;39.90;23.70;;;;;;4909019;28;86490;-86
2021/04/19 10:20:30;;;;;;;21.25;19.65;;;39.90;23.90;;;;;;4902732;28;86970;-87
2021/04/19 10:23:10;;;;;;;21.42;19.77;;;39.90;23.40;;;;;;4904841;28;86926;-87
2021/04/19 10:25:50;;;;;;;22.17;20.42;;;39.40;23.30;;;;;;4906991;28;88008;-86
2021/04/19 10:28:30;;;;;;;21.20;19.55;;;39.30;23.60;;;;;;4907729;28;86951;-86
2021/04/19 10:31:12;;;;;;;21.20;19.63;;;39.70;23.60;;;;;;4902275;28;87335;-87
2021/04/19 10:33:43;;;;;;;20.23;18.88;;;40.00;23.40;;;;;;4914151;28;87393;-86
2021/04/19 10:36:13;;;;;;;18.95;17.55;;;40.20;23.10;;;;;;4904247;28;86831;-86
2021/04/19 10:38:40;;;;;;;16.73;15.52;;;40.30;23.30;;;;;;4904987;28;86995;-86
2021/04/19 10:41:06;;;;;;;18.65;17.25;;;40.50;23.10;;;;;;4898060;28;87365;-86
2021/04/19 10:43:32;;;;;;;17.70;16.55;;;39.80;23.30;;;;;;4900199;28;87266;-85
2021/04/19 10:45:59;;;;;;;16.98;15.68;;;39.70;23.00;;;;;;4901543;28;86899;-85
2021/04/19 10:48:27;;;;;;;18.00;16.80;;;39.60;22.90;;;;;;4910353;28;86785;-86
2021/04/19 10:50:56;;;;;;;17.60;16.33;;;39.50;23.00;;;;;;4903109;28;88795;-86
2021/04/19 10:53:37;;;;;;;16.50;15.50;;;40.00;22.80;;;;;;4902912;28;87960;-86
2021/04/19 10:56:03;;;;;;;15.65;14.70;;;39.40;22.20;;;;;;4906596;28;87038;-85
2021/04/19 10:58:34;;;;;;;14.80;13.80;;;39.10;22.30;;;;;;4909752;28;87027;-86
2021/04/19 11:01:00;;;;;;;15.63;14.63;;;39.10;22.60;;;;;;4898523;28;87299;-87
2021/04/19 11:03:35;;;;;;;15.32;14.43;;;38.90;23.00;;;;;;4908365;28;87316;-86
2021/04/19 11:06:06;;;;;;;13.63;12.88;;;39.50;22.50;;;;;;4902280;28;87283;-90
2021/04/19 11:08:53;;;;;;;16.63;15.45;;;40.20;22.10;;;;;;4903267;28;86168;-86
2021/04/19 11:11:37;;;;;;;14.75;13.95;;;40.50;21.90;;;;;;4908024;28;87785;-86
2021/04/19 11:14:33;;;;;;;14.82;14.02;;;39.80;21.50;;;;;;4913976;28;87050;-87
2021/04/19 11:17:06;;;;;;;15.70;14.80;;;39.60;22.40;;;;;;4905680;28;88094;-86
2021/04/19 11:19:40;;;;;;;16.38;15.38;;;38.70;22.20;;;;;;4900530;28;88008;-86
2021/04/19 11:22:18;;;;;;;14.88;13.93;;;38.30;22.40;;;;;;4913586;28;87338;-86
2021/04/19 11:24:45;;;;;;;15.55;14.65;;;38.80;22.70;;;;;;4906497;28;87533;-87
2021/04/19 11:27:11;;;;;;;13.35;12.65;;;38.80;22.60;;;;;;4909783;28;87318;-86
2021/04/19 11:29:39;;;;;;;14.38;13.48;;;38.60;22.40;;;;;;4915290;28;87308;-86
2021/04/19 11:32:06;;;;;;;14.55;13.75;;;38.40;22.20;;;;;;4907438;28;88022;-86
2021/04/19 11:34:37;;;;;;;12.27;11.57;;;37.80;22.60;;;;;;4900729;28;88472;-87
2021/04/19 11:37:03;;;;;;;14.25;13.48;;;37.80;22.70;;;;;;4906345;28;86941;-86
2021/04/19 11:39:39;;;;;;;13.10;12.15;;;38.50;22.50;;;;;;4905946;28;87059;-86
2021/04/19 11:42:25;;;;;;;15.48;14.65;;;38.50;22.30;;;;;;4912157;28;87960;-86
2021/04/19 11:44:52;;;;;;;15.50;14.60;;;38.40;22.50;;;;;;4903219;28;88396;-86
2021/04/19 11:47:18;;;;;;;14.27;13.48;;;38.70;22.40;;;;;;4904889;28;86737;-86
2021/04/19 11:49:44;;;;;;;14.48;13.77;;;38.80;22.10;;;;;;4905757;28;87221;-86
2021/04/19 11:52:10;;;;;;;13.82;13.02;;;37.80;21.70;;;;;;4903521;28;87356;-87
2021/04/19 11:54:37;;;;;;;13.43;12.73;;;37.80;22.00;;;;;;4906833;28;86937;-87
2021/04/19 11:57:04;;;;;;;13.15;12.55;;;38.20;21.60;;;;;;4903553;28;86847;-87
2021/04/19 11:59:29;;;;;;;13.02;12.32;;;38.20;21.80;;;;;;4906146;28;86250;-87
2021/04/19 12:01:55;;;;;;;13.25;12.55;;;38.40;21.90;;;;;;4907740;28;88710;-87
2021/04/19 12:04:21;;;;;;;13.82;13.13;;;38.30;21.50;;;;;;4902205;28;87286;-87
2021/04/19 12:06:46;;;;;;;14.15;13.35;;;38.30;22.00;;;;;;4897032;28;88017;-87
2021/04/19 12:09:12;;;;;;;14.77;13.98;;;38.30;22.20;;;;;;4909225;28;87036;-87
2021/04/19 12:11:38;;;;;;;13.40;12.63;;;38.50;22.20;;;;;;4904097;28;87311;-87
2021/04/19 12:14:04;;;;;;;13.60;12.90;;;38.50;21.70;;;;;;4905656;28;86664;-87
2021/04/19 12:16:30;;;;;;;14.38;13.48;;;38.00;21.90;;;;;;4902061;28;86895;-87
2021/04/19 12:18:56;;;;;;;13.77;13.05;;;37.20;22.00;;;;;;4905774;28;86961;-87
2021/04/19 12:21:22;;;;;;;13.70;12.90;;;36.20;22.30;;;;;;4905625;28;87268;-87
2021/04/19 12:23:48;;;;;;;12.35;11.65;;;35.30;22.80;;;;;;4911780;28;86894;-87
2021/04/19 12:26:14;;;;;;;13.23;12.43;;;34.50;23.30;;;;;;4902686;28;87424;-88
2021/04/19 12:28:40;;;;;;;13.55;12.75;;;32.90;23.60;;;;;;4886118;28;87167;-86
2021/04/19 12:31:09;;;;;;;13.50;12.70;;;32.10;24.30;;;;;;4902835;28;88199;-87
2021/04/19 12:33:35;;;;;;;12.73;11.98;;;31.50;24.60;;;;;;4902432;28;88509;-85
2021/04/19 12:36:00;;;;;;;12.57;11.68;;;30.90;24.50;;;;;;4893268;28;87410;-87
2021/04/19 12:38:28;;;;;;;12.82;11.98;;;30.10;25.00;;;;;;4906967;28;86930;-87
2021/04/19 12:40:53;;;;;;;11.95;11.25;;;29.50;24.60;;;;;;4907473;28;87234;-86
2021/04/19 12:43:19;;;;;;;12.18;11.38;;;28.80;25.20;;;;;;4909680;28;87204;-87
2021/04/19 12:45:45;;;;;;;12.75;11.90;;;28.30;25.20;;;;;;4911053;28;86987;-87
2021/04/19 12:48:12;;;;;;;11.85;10.95;;;28.30;25.80;;;;;;4888937;28;86188;-87
2021/04/19 12:50:40;;;;;;;12.32;11.52;;;28.50;25.60;;;;;;4910563;28;86929;-86
2021/04/19 12:53:07;;;;;;;12.40;11.60;;;28.60;25.50;;;;;;4904594;28;87868;-87
2021/04/19 12:55:33;;;;;;;11.73;11.02;;;28.40;25.60;;;;;;4906000;28;88052;-87
2021/04/19 12:57:59;;;;;;;12.02;11.25;;;27.90;25.80;;;;;;4905367;28;87108;-87
2021/04/19 13:00:27;;;;;;;11.52;10.73;;;27.40;25.80;;;;;;4902030;28;87067;-86
2021/04/19 13:02:53;;;;;;;10.80;10.10;;;27.10;26.60;;;;;;4907706;28;87365;-85
2021/04/19 13:05:19;;;;;;;10.63;10.02;;;26.80;26.60;;;;;;4908866;28;87191;-85
2021/04/19 13:07:47;;;;;;;9.85;7.75;;;26.30;27.40;;;;;;4908822;28;87088;-85
2021/04/19 13:10:14;;;;;;;10.80;10.20;;;26.00;27.70;;;;;;4906675;28;87322;-86
2021/04/19 13:12:39;;;;;;;11.10;10.40;;;26.30;27.70;;;;;;4902000;28;87823;-85
2021/04/19 13:15:07;;;;;;;10.63;9.93;;;26.90;27.30;;;;;;4907133;28;87591;-86
2021/04/19 13:17:33;;;;;;;10.45;9.95;;;27.40;27.20;;;;;;4906800;28;87700;-86
2021/04/19 13:19:59;;;;;;;10.32;9.82;;;27.70;26.70;;;;;;4908520;28;88281;-86
2021/04/19 13:22:25;;;;;;;10.88;10.27;;;27.80;26.50;;;;;;4915847;28;87200;-86
2021/04/19 13:24:52;;;;;;;10.55;9.90;;;28.00;26.40;;;;;;4891650;28;87014;-86
2021/04/19 13:27:18;;;;;;;10.55;9.90;;;27.90;26.10;;;;;;4895477;28;87030;-86
2021/04/19 13:29:44;;;;;;;10.60;9.93;;;28.20;26.30;;;;;;4904084;28;87347;-86
2021/04/19 13:32:09;;;;;;;10.95;10.32;;;28.10;26.00;;;;;;4908146;28;87147;-86
2021/04/19 13:34:36;;;;;;;11.25;10.65;;;28.20;25.90;;;;;;4904144;28;86921;-86
2021/04/19 13:37:03;;;;;;;11.60;10.90;;;28.40;26.00;;;;;;4890777;28;86314;-86
2021/04/19 13:39:30;;;;;;;10.93;10.32;;;28.20;25.30;;;;;;4899938;28;87098;-85
2021/04/19 13:41:55;;;;;;;11.13;10.48;;;28.10;25.50;;;;;;4924581;28;87258;-86
2021/04/19 13:44:21;;;;;;;11.05;10.40;;;27.90;25.60;;;;;;4925505;28;87824;-86
2021/04/19 13:46:48;;;;;;;11.05;10.35;;;27.80;25.30;;;;;;4924200;28;87165;-86
2021/04/19 13:49:14;;;;;;;11.38;10.68;;;27.70;25.50;;;;;;4928886;28;86726;-86
2021/04/19 13:51:42;;;;;;;11.23;10.52;;;27.80;25.60;;;;;;4919527;28;86183;-86
2021/04/19 13:54:08;;;;;;;11.70;11.00;;;27.70;25.50;;;;;;4929287;28;86930;-86
2021/04/19 13:56:34;;;;;;;11.27;10.48;;;27.00;25.80;;;;;;4910440;28;86967;-86
2021/04/19 13:59:01;;;;;;;11.75;10.93;;;27.00;26.10;;;;;;4904152;28;87965;-86
2021/04/19 14:01:27;;;;;;;11.90;11.20;;;26.70;26.40;;;;;;4909462;28;87161;-85
2021/04/19 14:03:52;;;;;;;11.82;11.13;;;26.60;26.30;;;;;;4897686;28;86946;-86
2021/04/19 14:06:18;;;;;;;11.82;11.10;;;26.40;26.40;;;;;;4908718;28;86685;-86
2021/04/19 14:08:44;;;;;;;11.10;10.40;;;26.30;26.70;;;;;;4917432;28;88061;-86
2021/04/19 14:11:09;;;;;;;11.93;11.13;;;26.20;26.80;;;;;;4913278;28;88363;-85
2021/04/19 14:13:35;;;;;;;12.18;11.38;;;25.80;26.80;;;;;;4927725;28;86935;-86
2021/04/19 14:16:01;;;;;;;12.10;11.40;;;25.80;26.60;;;;;;4916007;28;86862;-86
2021/04/19 14:18:27;;;;;;;11.02;10.32;;;25.70;27.00;;;;;;4915261;28;87684;-85
2021/04/19 14:20:53;;;;;;;9.40;8.60;;;25.60;26.60;;;;;;4917248;28;87136;-85
2021/04/19 14:23:21;;;;;;;11.40;10.70;;;25.40;27.00;;;;;;4920121;28;86884;-85
2021/04/19 14:25:46;;;;;;;12.23;11.32;;;25.30;26.60;;;;;;4918577;28;86206;-86
2021/04/19 14:28:12;;;;;;;11.18;10.45;;;25.40;26.70;;;;;;4909269;28;88262;-85
2021/04/19 14:30:37;;;;;;;11.25;10.55;;;25.60;27.20;;;;;;4918020;28;87043;-86
2021/04/19 14:33:03;;;;;;;11.80;11.05;;;25.80;27.10;;;;;;4900599;28;88058;-86
2021/04/19 14:35:29;;;;;;;12.05;11.23;;;25.80;26.80;;;;;;4914723;28;87108;-86
2021/04/19 14:37:55;;;;;;;11.88;11.18;;;25.80;26.50;;;;;;4906772;28;87282;-86
2021/04/19 14:40:21;;;;;;;11.90;11.20;;;25.90;26.40;;;;;;4909802;28;86949;-86
2021/04/19 14:42:47;;;;;;;10.93;10.25;;;26.10;27.10;;;;;;4906638;28;87388;-86
2021/04/19 14:45:14;;;;;;;12.25;11.35;;;25.90;26.20;;;;;;4905895;28;86917;-86
2021/04/19 14:47:40;;;;;;;12.05;11.25;;;25.90;26.60;;;;;;4901017;28;88213;-86
2021/04/19 14:50:07;;;;;;;11.60;10.90;;;25.80;26.60;;;;;;4902550;28;87049;-86
2021/04/19 14:52:34;;;;;;;11.80;11.00;;;25.60;26.70;;;;;;4908376;28;87140;-86
2021/04/19 14:55:02;;;;;;;11.27;10.57;;;25.40;27.80;;;;;;4906395;28;86772;-85
2021/04/19 14:57:28;;;;;;;11.35;10.65;;;25.30;27.40;;;;;;4897942;28;87910;-85
2021/04/19 14:59:53;;;;;;;10.95;10.18;;;25.10;26.70;;;;;;4901148;28;88623;-85
2021/04/19 15:02:19;;;;;;;10.75;10.05;;;24.90;27.50;;;;;;4902521;28;86964;-86
2021/04/19 15:04:45;;;;;;;11.20;10.40;;;24.60;27.10;;;;;;4905127;28;86932;-85
2021/04/19 15:07:10;;;;;;;11.30;10.55;;;24.30;27.00;;;;;;4884620;28;89711;-86
2021/04/19 15:09:37;;;;;;;10.10;9.60;;;23.90;27.10;;;;;;4913124;28;87226;-86
2021/04/19 15:12:03;;;;;;;11.15;10.30;;;23.50;27.60;;;;;;4902114;28;86855;-86
2021/04/19 15:14:29;;;;;;;10.35;9.65;;;23.40;27.80;;;;;;4920699;28;86247;-85
2021/04/19 15:16:55;;;;;;;10.57;9.88;;;23.20;27.50;;;;;;4909035;28;89174;-85
2021/04/19 15:19:24;;;;;;;10.32;9.73;;;23.10;28.10;;;;;;4941884;28;86921;-86
2021/04/19 15:21:49;;;;;;;13.30;9.82;;;23.00;28.10;;;;;;4926102;28;87812;-85
2021/04/19 15:24:15;;;;;;;10.75;9.95;;;22.90;28.50;;;;;;4899824;28;86867;-86
2021/04/19 15:26:41;;;;;;;10.23;9.55;;;22.90;28.30;;;;;;4898407;28;87407;-85
2021/04/19 15:29:07;;;;;;;9.82;9.13;;;22.80;28.50;;;;;;4911510;28;87326;-86
2021/04/19 15:31:34;;;;;;;10.55;9.85;;;22.80;28.90;;;;;;4908935;28;87014;-86